Time;durP1;ratioP1;P1;durP2;ratioP2;P2;SDS_P1;SDS_P2;PMS_P1;PMS_P2;Temp;Humidity;BMP_temperature;BMP_pressure;BME280_temperature;BME280_humidity;BME280_pressure;Samples;Min_cycle;Max_cycle;Signal;HPM_P1;HPM_P2
2021/12/13 00:02:11;;;;;;;115.57;44.85;;;9.70;99.90;;;;;;5034357;28;20033;-75
2021/12/13 00:04:36;;;;;;;87.00;40.55;;;9.70;99.90;;;;;;5034562;28;20067;-75
2021/12/13 00:07:14;;;;;;;79.53;41.78;;;9.70;99.90;;;;;;5034286;28;20061;-75
2021/12/13 00:09:44;;;;;;;99.88;42.95;;;9.70;99.90;;;;;;5034134;28;20029;-75
2021/12/13 00:12:11;;;;;;;83.57;40.63;;;9.70;99.90;;;;;;5034530;28;20088;-74
2021/12/13 00:14:47;;;;;;;161.10;43.22;;;9.70;99.90;;;;;;5034494;28;20013;-77
2021/12/13 00:17:18;;;;;;;199.98;45.42;;;9.70;99.90;;;;;;5034199;28;20079;-74
2021/12/13 00:19:50;;;;;;;80.75;40.45;;;9.70;99.90;;;;;;5033954;28;20120;-75
2021/12/13 00:22:21;;;;;;;97.88;44.78;;;9.70;99.90;;;;;;5032882;28;20021;-75
2021/12/13 00:24:49;;;;;;;91.57;42.17;;;9.70;99.90;;;;;;5033881;28;20173;-77
2021/12/13 00:27:21;;;;;;;95.45;41.35;;;9.70;99.90;;;;;;5033357;28;20451;-75
2021/12/13 00:29:58;;;;;;;82.60;40.42;;;9.70;99.90;;;;;;5033752;28;20113;-75
2021/12/13 00:32:42;;;;;;;71.45;37.17;;;9.70;99.90;;;;;;5033968;28;20043;-74
2021/12/13 00:35:13;;;;;;;90.53;38.63;;;9.70;99.90;;;;;;5033857;28;20057;-74
2021/12/13 00:37:48;;;;;;;66.53;36.13;;;9.70;99.90;;;;;;5033029;28;20028;-75
2021/12/13 00:40:19;;;;;;;63.72;34.88;;;9.80;99.90;;;;;;5032530;28;20022;-74
2021/12/13 00:42:54;;;;;;;67.45;36.33;;;9.80;99.90;;;;;;5033414;28;20526;-75
2021/12/13 00:45:23;;;;;;;65.53;33.78;;;9.80;99.90;;;;;;5033381;28;20087;-76
2021/12/13 00:47:50;;;;;;;58.13;32.33;;;9.80;99.90;;;;;;5033298;28;20029;-75
2021/12/13 00:50:42;;;;;;;61.20;33.42;;;9.80;99.90;;;;;;5033356;28;20030;-76
2021/12/13 00:53:09;;;;;;;52.55;28.98;;;9.80;99.90;;;;;;5033552;28;20079;-74
2021/12/13 00:55:36;;;;;;;56.90;31.30;;;9.80;99.90;;;;;;5033397;28;20022;-74
2021/12/13 00:58:23;;;;;;;53.90;29.45;;;9.80;99.90;;;;;;5032977;28;20026;-74
2021/12/13 01:00:57;;;;;;;57.03;30.55;;;9.80;99.90;;;;;;5033138;28;20053;-75
2021/12/13 01:03:27;;;;;;;;;;;9.80;99.90;;;;;;5033801;28;20485;-74
2021/12/13 01:06:11;;;;;;;50.63;28.13;;;9.90;99.90;;;;;;5032727;28;19909;-75
2021/12/13 01:09:10;;;;;;;54.33;28.63;;;9.90;99.90;;;;;;5036471;28;20089;-75
2021/12/13 01:11:58;;;;;;;48.90;26.52;;;9.90;99.90;;;;;;5033107;28;20076;-76
2021/12/13 01:14:56;;;;;;;45.42;25.75;;;9.80;99.90;;;;;;5034061;28;20045;-75
2021/12/13 01:20:33;;;;;;;46.50;25.17;;;9.80;99.90;;;;;;5034453;28;20041;-75
2021/12/13 01:23:07;;;;;;;44.47;24.67;;;9.80;99.90;;;;;;5033910;28;20021;-76
2021/12/13 01:26:00;;;;;;;41.72;23.80;;;9.90;99.90;;;;;;5033429;28;20021;-76
2021/12/13 01:28:34;;;;;;;42.47;23.63;;;9.90;99.90;;;;;;5033846;28;20108;-75
2021/12/13 01:31:12;;;;;;;43.10;23.63;;;9.90;99.90;;;;;;5034038;28;20092;-75
2021/12/13 01:33:41;;;;;;;43.90;23.88;;;10.00;99.90;;;;;;5033661;28;20026;-75
2021/12/13 01:36:09;;;;;;;40.55;22.63;;;10.00;99.90;;;;;;5033491;28;20022;-75
2021/12/13 01:38:50;;;;;;;41.60;23.30;;;10.00;99.90;;;;;;5033907;28;20017;-76
2021/12/13 01:41:23;;;;;;;40.17;21.75;;;10.00;99.90;;;;;;5034048;28;20026;-74
2021/12/13 01:44:12;;;;;;;39.03;21.33;;;10.00;99.90;;;;;;5033962;28;20028;-76
2021/12/13 01:46:44;;;;;;;42.38;22.83;;;10.00;99.90;;;;;;5032812;28;20025;-76
2021/12/13 01:49:10;;;;;;;38.75;21.05;;;10.00;99.90;;;;;;5034337;28;20030;-73
2021/12/13 01:51:37;;;;;;;35.63;19.98;;;10.00;99.90;;;;;;5034271;28;20083;-75
2021/12/13 01:54:06;;;;;;;36.35;19.98;;;10.00;99.90;;;;;;5034625;28;20080;-77
2021/12/13 01:59:42;;;;;;;35.70;20.00;;;10.00;99.90;;;;;;5034626;28;20033;-75
2021/12/13 02:02:13;;;;;;;36.00;19.42;;;10.00;99.90;;;;;;5033264;28;20029;-76
2021/12/13 02:04:40;;;;;;;36.95;18.77;;;10.00;99.90;;;;;;5033300;28;20130;-76
2021/12/13 02:07:07;;;;;;;38.15;19.85;;;10.00;99.90;;;;;;5032721;28;20095;-75
2021/12/13 02:09:44;;;;;;;37.30;19.65;;;10.00;99.90;;;;;;5033425;28;20474;-75
2021/12/13 02:12:14;;;;;;;33.80;18.88;;;10.00;99.90;;;;;;5033619;28;20680;-75
2021/12/13 02:17:53;;;;;;;34.33;18.60;;;10.00;99.90;;;;;;5033203;28;20095;-74
2021/12/13 02:20:29;;;;;;;32.85;18.27;;;10.10;99.90;;;;;;5032933;28;20064;-75
2021/12/13 02:22:55;;;;;;;29.83;17.10;;;10.10;99.90;;;;;;5032968;28;20037;-74
2021/12/13 02:25:32;;;;;;;30.35;17.17;;;10.00;99.90;;;;;;5032786;28;20371;-75
2021/12/13 02:28:09;;;;;;;30.05;16.45;;;10.10;99.90;;;;;;5032981;28;20029;-75
2021/12/13 02:31:05;;;;;;;28.95;15.65;;;10.10;99.90;;;;;;5033236;28;20022;-75
2021/12/13 02:33:35;;;;;;;29.48;16.27;;;10.10;99.90;;;;;;5031675;28;20076;-73
2021/12/13 02:36:13;;;;;;;29.08;14.98;;;10.10;99.90;;;;;;5031487;28;20036;-74
2021/12/13 02:38:41;;;;;;;25.58;14.85;;;10.10;99.90;;;;;;5032601;28;20494;-75
2021/12/13 02:41:08;;;;;;;24.08;13.35;;;10.10;99.90;;;;;;5032870;28;20075;-75
2021/12/13 02:43:38;;;;;;;25.25;13.35;;;10.10;99.90;;;;;;5032901;28;20095;-75
2021/12/13 02:46:03;;;;;;;23.95;13.07;;;10.10;99.90;;;;;;5032196;28;20106;-73
2021/12/13 02:48:52;;;;;;;24.50;12.82;;;10.10;99.90;;;;;;5032814;28;20474;-72
2021/12/13 02:51:24;;;;;;;21.45;12.27;;;10.20;99.90;;;;;;5033055;28;20033;-76
2021/12/13 02:53:55;;;;;;;20.25;11.93;;;10.20;99.90;;;;;;5033776;28;20494;-77
2021/12/13 02:56:25;;;;;;;24.02;12.85;;;10.20;99.90;;;;;;5032664;28;20034;-75
2021/12/13 02:58:52;;;;;;;22.10;12.38;;;10.30;99.90;;;;;;5032340;28;20060;-76
2021/12/13 03:01:30;;;;;;;21.58;12.07;;;10.20;99.90;;;;;;5033615;28;20083;-76
2021/12/13 03:04:00;;;;;;;27.67;13.25;;;10.30;99.90;;;;;;5035782;28;20438;-75
2021/12/13 03:06:32;;;;;;;26.65;13.45;;;10.30;99.90;;;;;;5036268;28;20092;-74
2021/12/13 03:09:06;;;;;;;29.73;14.48;;;10.40;99.90;;;;;;5036418;28;20455;-73
2021/12/13 03:11:34;;;;;;;28.90;15.18;;;10.30;99.90;;;;;;5036914;28;20087;-75
2021/12/13 03:14:02;;;;;;;32.30;15.57;;;10.30;99.90;;;;;;5036535;28;20036;-75
2021/12/13 03:16:36;;;;;;;32.97;15.82;;;10.30;99.90;;;;;;5036119;28;20025;-75
2021/12/13 03:19:08;;;;;;;36.35;16.30;;;10.30;99.90;;;;;;5036891;28;20033;-77
2021/12/13 03:21:46;;;;;;;32.70;15.70;;;10.30;99.90;;;;;;5036294;28;20026;-76
2021/12/13 03:24:52;;;;;;;33.17;16.40;;;10.30;99.90;;;;;;5036117;28;20025;-76
2021/12/13 03:27:53;;;;;;;33.97;16.48;;;10.30;99.90;;;;;;4984068;28;20045;-76
2021/12/13 03:30:29;;;;;;;32.47;15.25;;;10.30;99.90;;;;;;5032309;28;20038;-76
2021/12/13 03:33:00;;;;;;;33.35;15.98;;;10.30;99.90;;;;;;5032756;28;20037;-76
2021/12/13 03:35:52;;;;;;;32.10;15.18;;;10.30;99.90;;;;;;5039752;28;20029;-74
2021/12/13 03:38:25;;;;;;;28.92;15.13;;;10.30;99.90;;;;;;5034124;28;20087;-75
2021/12/13 03:40:51;;;;;;;31.38;15.57;;;10.30;99.90;;;;;;5035360;28;20021;-74
2021/12/13 03:43:25;;;;;;;28.98;14.30;;;10.40;99.90;;;;;;5035552;28;20056;-74
2021/12/13 03:45:54;;;;;;;32.20;15.27;;;10.30;99.90;;;;;;5035487;28;20021;-74
2021/12/13 03:48:22;;;;;;;35.25;15.90;;;10.40;99.90;;;;;;5036226;28;20037;-74
2021/12/13 03:50:52;;;;;;;33.75;16.00;;;10.40;99.90;;;;;;5054242;28;20017;-74
2021/12/13 03:53:22;;;;;;;32.15;16.05;;;10.40;99.90;;;;;;5059046;28;20028;-75
2021/12/13 03:55:55;;;;;;;35.63;16.58;;;10.40;99.90;;;;;;5042885;28;20021;-74
2021/12/13 03:58:24;;;;;;;32.20;16.20;;;10.40;99.90;;;;;;5035248;28;20200;-75
2021/12/13 04:00:56;;;;;;;36.17;16.65;;;10.50;99.90;;;;;;5035497;28;20494;-74
2021/12/13 04:03:24;;;;;;;36.45;17.15;;;10.40;99.90;;;;;;5035564;28;20627;-74
2021/12/13 04:05:50;;;;;;;35.78;17.75;;;10.40;99.90;;;;;;5035064;28;20025;-75
2021/12/13 04:08:20;;;;;;;41.60;18.50;;;10.40;99.90;;;;;;5035084;28;20471;-74
2021/12/13 04:10:58;;;;;;;41.00;18.63;;;10.50;99.90;;;;;;5034936;28;20031;-74
2021/12/13 04:13:27;;;;;;;40.88;19.05;;;10.50;99.90;;;;;;5044477;28;20029;-75
2021/12/13 04:21:21;;;;;;;;;;;10.50;99.90;;;;;;5035694;28;20075;-73
2021/12/13 04:23:58;;;;;;;47.15;19.50;;;10.50;99.90;;;;;;5035584;28;20543;-73
2021/12/13 04:26:26;;;;;;;39.63;18.48;;;10.50;99.90;;;;;;5034405;28;20040;-73
2021/12/13 04:28:55;;;;;;;44.30;19.63;;;10.50;99.90;;;;;;5035004;28;20105;-73
2021/12/13 04:31:25;;;;;;;44.10;19.67;;;10.50;99.90;;;;;;5035291;28;20100;-73
2021/12/13 04:33:56;;;;;;;44.67;19.77;;;10.60;99.90;;;;;;5035513;28;20061;-74
2021/12/13 04:36:31;;;;;;;45.97;20.13;;;10.60;99.90;;;;;;5034563;28;20030;-74
2021/12/13 04:39:18;;;;;;;42.33;19.58;;;10.50;99.90;;;;;;5035130;28;20025;-74
2021/12/13 04:41:53;;;;;;;39.65;19.17;;;10.50;99.90;;;;;;5034755;28;20029;-75
2021/12/13 04:44:31;;;;;;;41.58;18.92;;;10.60;99.90;;;;;;5035063;28;20420;-74
2021/12/13 04:47:07;;;;;;;40.75;18.75;;;10.50;99.90;;;;;;5035513;28;20483;-74
2021/12/13 04:49:36;;;;;;;41.97;17.92;;;10.60;99.90;;;;;;5033938;28;20029;-74
2021/12/13 04:52:10;;;;;;;37.67;18.02;;;10.60;99.90;;;;;;5034248;28;20497;-74
2021/12/13 04:54:40;;;;;;;40.17;18.17;;;10.60;99.90;;;;;;5034497;28;20061;-74
2021/12/13 04:57:06;;;;;;;36.67;17.67;;;10.60;99.90;;;;;;5034840;28;20033;-73
2021/12/13 04:59:34;;;;;;;39.10;17.90;;;10.60;99.90;;;;;;5034519;28;20048;-74
2021/12/13 05:02:04;;;;;;;40.40;19.13;;;10.60;99.90;;;;;;5034407;28;20029;-73
2021/12/13 05:04:30;;;;;;;35.85;17.45;;;10.60;99.90;;;;;;5034116;28;20021;-74
2021/12/13 05:06:58;;;;;;;38.78;17.33;;;10.60;99.90;;;;;;5032414;28;20513;-73
2021/12/13 05:09:26;;;;;;;33.67;16.25;;;10.60;99.90;;;;;;5034301;28;20022;-73
2021/12/13 05:12:15;;;;;;;34.65;16.85;;;10.60;99.90;;;;;;5034993;28;20025;-74
2021/12/13 05:14:46;;;;;;;36.40;17.05;;;10.70;99.90;;;;;;5036809;28;20107;-75
2021/12/13 05:17:43;;;;;;;39.38;17.67;;;10.70;99.90;;;;;;5035678;28;20030;-75
2021/12/13 05:20:20;;;;;;;33.55;16.45;;;10.70;99.90;;;;;;5048961;23;20045;-78
2021/12/13 05:22:57;;;;;;;41.60;18.20;;;10.70;99.90;;;;;;5037555;28;20072;-78
2021/12/13 05:25:29;;;;;;;43.03;17.98;;;10.70;99.90;;;;;;5037654;28;20089;-76
2021/12/13 05:28:04;;;;;;;41.95;18.50;;;10.70;99.90;;;;;;5035814;28;20056;-79
2021/12/13 05:30:31;;;;;;;43.95;19.45;;;10.70;99.90;;;;;;5038841;28;20070;-77
2021/12/13 05:33:04;;;;;;;37.33;17.25;;;10.70;99.90;;;;;;5039604;28;20036;-78
2021/12/13 05:35:31;;;;;;;37.20;17.15;;;10.80;99.90;;;;;;5038138;28;20021;-77
2021/12/13 05:38:01;;;;;;;37.85;17.55;;;10.80;99.90;;;;;;5037646;28;20036;-78
2021/12/13 05:40:34;;;;;;;40.28;17.00;;;10.80;99.90;;;;;;5042687;28;20097;-77
2021/12/13 05:43:20;;;;;;;37.00;17.17;;;10.80;99.90;;;;;;5051305;28;20033;-78
2021/12/13 05:45:52;;;;;;;46.33;21.50;;;10.80;99.90;;;;;;5048220;28;20033;-78
2021/12/13 05:48:42;;;;;;;39.53;17.83;;;10.80;99.90;;;;;;5045044;28;20030;-76
2021/12/13 05:51:19;;;;;;;37.78;17.35;;;10.80;99.90;;;;;;5039231;28;20032;-78
2021/12/13 05:53:52;;;;;;;42.22;18.08;;;10.80;99.90;;;;;;5037839;28;20048;-80
2021/12/13 05:56:19;;;;;;;43.50;17.75;;;10.80;99.90;;;;;;5038769;28;20095;-79
2021/12/13 05:59:03;;;;;;;40.08;18.30;;;10.80;99.90;;;;;;5038898;28;20049;-77
2021/12/13 06:01:40;;;;;;;39.40;18.47;;;10.80;99.90;;;;;;5038656;28;20103;-78
2021/12/13 06:04:06;;;;;;;39.90;18.77;;;10.80;99.90;;;;;;5044578;28;20049;-77
2021/12/13 06:06:34;;;;;;;39.08;17.23;;;10.90;99.90;;;;;;5045262;28;20025;-78
2021/12/13 06:09:00;;;;;;;43.63;17.60;;;10.90;99.90;;;;;;5043824;28;20059;-77
2021/12/13 06:11:39;;;;;;;41.53;17.20;;;10.90;99.90;;;;;;5046992;28;20009;-79
2021/12/13 06:14:14;;;;;;;41.85;20.08;;;10.90;99.90;;;;;;5043334;28;20041;-78
2021/12/13 06:17:00;;;;;;;38.63;16.75;;;10.90;99.90;;;;;;5054607;28;20031;-76
2021/12/13 06:19:58;;;;;;;43.72;17.85;;;10.90;99.90;;;;;;5055381;28;20025;-77
2021/12/13 06:22:26;;;;;;;41.40;19.15;;;11.00;99.90;;;;;;5049082;28;20072;-77
2021/12/13 06:24:57;;;;;;;38.97;17.90;;;10.90;99.90;;;;;;5057431;28;20006;-78
2021/12/13 06:27:30;;;;;;;39.22;18.80;;;11.00;99.90;;;;;;5056289;28;20121;-77
2021/12/13 06:30:03;;;;;;;41.15;18.67;;;10.90;99.90;;;;;;5056204;28;20024;-79
2021/12/13 06:32:34;;;;;;;42.55;19.63;;;10.90;99.90;;;;;;5056353;28;20033;-78
2021/12/13 06:35:38;;;;;;;41.75;19.73;;;11.00;99.90;;;;;;5056160;28;20048;-77
2021/12/13 06:38:19;;;;;;;43.38;19.42;;;11.00;99.90;;;;;;5053326;28;20350;-77
2021/12/13 06:40:56;;;;;;;42.50;19.52;;;11.00;99.90;;;;;;5052444;28;20037;-78
2021/12/13 06:43:31;;;;;;;49.47;20.77;;;11.00;99.90;;;;;;5044675;28;20033;-77
2021/12/13 06:45:59;;;;;;;45.25;19.67;;;11.00;99.90;;;;;;5042996;28;20024;-80
2021/12/13 06:48:33;;;;;;;43.95;18.77;;;11.00;99.90;;;;;;5040741;28;20029;-79
2021/12/13 06:50:59;;;;;;;44.97;20.02;;;11.00;99.90;;;;;;5045690;28;20030;-78
2021/12/13 06:53:25;;;;;;;42.50;18.20;;;11.10;99.90;;;;;;5053787;28;20026;-77
2021/12/13 06:55:51;;;;;;;41.22;18.25;;;11.10;99.90;;;;;;5056074;28;20045;-78
2021/12/13 06:58:19;;;;;;;41.88;19.38;;;11.10;99.90;;;;;;5053365;28;20052;-76
2021/12/13 07:00:47;;;;;;;38.75;18.08;;;11.10;99.90;;;;;;5050554;28;20128;-76
2021/12/13 07:03:20;;;;;;;35.22;15.88;;;11.10;99.90;;;;;;5046597;28;20025;-77
2021/12/13 07:05:55;;;;;;;39.25;16.50;;;11.10;99.90;;;;;;5036853;28;20105;-80
2021/12/13 07:08:23;;;;;;;34.58;16.17;;;11.00;99.90;;;;;;5037267;28;20573;-79
2021/12/13 07:10:52;;;;;;;36.40;17.17;;;11.10;99.90;;;;;;5036946;28;20025;-77
2021/12/13 07:13:31;;;;;;;38.05;17.92;;;11.00;99.90;;;;;;5039601;28;20028;-80
2021/12/13 07:16:15;;;;;;;32.20;14.90;;;11.00;99.90;;;;;;5049405;28;20009;-80
2021/12/13 07:18:57;;;;;;;31.38;14.55;;;11.10;99.90;;;;;;5053467;28;20030;-80
2021/12/13 07:21:46;;;;;;;34.58;15.80;;;11.10;99.90;;;;;;5043543;28;20037;-78
2021/12/13 07:24:15;;;;;;;25.33;13.57;;;11.10;99.90;;;;;;5041047;28;20025;-77
2021/12/13 07:27:04;;;;;;;29.25;14.23;;;11.10;99.90;;;;;;5043601;28;20037;-77
2021/12/13 07:29:51;;;;;;;25.48;12.65;;;11.10;99.90;;;;;;5050211;28;20103;-78
2021/12/13 07:32:28;;;;;;;26.85;12.88;;;11.20;99.90;;;;;;5051683;28;20056;-77
2021/12/13 07:35:09;;;;;;;27.67;14.00;;;11.10;99.90;;;;;;5041231;28;20056;-77
2021/12/13 07:37:48;;;;;;;26.27;12.93;;;11.10;99.90;;;;;;5044440;28;20112;-78
2021/12/13 07:40:17;;;;;;;22.92;12.57;;;11.10;99.90;;;;;;5046022;28;20022;-77
2021/12/13 07:42:54;;;;;;;26.05;14.52;;;11.10;99.90;;;;;;5044722;28;20037;-77
2021/12/13 07:45:33;;;;;;;25.83;13.75;;;11.20;99.90;;;;;;5042091;28;20105;-77
2021/12/13 07:48:05;;;;;;;25.83;13.27;;;11.10;99.90;;;;;;5046935;28;20030;-77
2021/12/13 07:50:31;;;;;;;25.27;12.52;;;11.10;99.90;;;;;;5050883;28;20072;-77
2021/12/13 07:53:02;;;;;;;24.50;13.73;;;11.10;99.90;;;;;;5051800;28;20021;-78
2021/12/13 07:55:31;;;;;;;23.90;14.20;;;11.20;99.90;;;;;;5049847;28;20501;-82
2021/12/13 07:58:02;;;;;;;22.58;12.50;;;11.20;99.90;;;;;;5046659;28;20477;-79
2021/12/13 08:00:38;;;;;;;25.35;13.85;;;11.20;99.90;;;;;;5045427;28;20029;-79
2021/12/13 08:03:11;;;;;;;28.30;13.88;;;11.20;99.90;;;;;;5051531;28;20042;-78
2021/12/13 08:05:49;;;;;;;24.17;13.20;;;11.20;99.90;;;;;;5049481;28;20032;-77
2021/12/13 08:08:26;;;;;;;29.02;14.55;;;11.30;99.90;;;;;;5049782;28;20085;-77
2021/12/13 08:10:58;;;;;;;25.30;13.70;;;11.30;99.90;;;;;;5050650;28;20025;-79
2021/12/13 08:13:28;;;;;;;24.63;13.07;;;11.40;99.90;;;;;;5042119;28;20025;-79
2021/12/13 08:16:01;;;;;;;25.58;13.18;;;11.40;99.90;;;;;;5039419;28;20026;-77
2021/12/13 08:18:43;;;;;;;19.60;12.43;;;11.40;99.90;;;;;;5043423;28;20033;-79
2021/12/13 08:21:20;;;;;;;23.38;12.38;;;11.50;99.90;;;;;;5042984;28;20049;-78
2021/12/13 08:23:58;;;;;;;20.08;12.23;;;11.50;99.90;;;;;;5043134;28;20018;-79
2021/12/13 08:26:29;;;;;;;22.38;12.32;;;11.50;99.90;;;;;;5041884;28;20025;-79
2021/12/13 08:28:57;;;;;;;23.20;14.32;;;11.50;99.90;;;;;;5039089;28;20026;-79
2021/12/13 08:31:29;;;;;;;23.35;14.20;;;11.50;99.90;;;;;;5043199;28;20032;-77
2021/12/13 08:34:00;;;;;;;24.65;13.82;;;11.50;99.90;;;;;;5042889;28;20486;-78
2021/12/13 08:36:42;;;;;;;27.27;14.60;;;11.50;99.90;;;;;;5042736;28;20087;-77
2021/12/13 08:39:12;;;;;;;27.50;16.02;;;11.50;99.90;;;;;;5043782;28;20032;-78
2021/12/13 08:41:48;;;;;;;25.90;15.57;;;11.60;99.90;;;;;;5045976;28;20049;-78
2021/12/13 08:44:29;;;;;;;25.67;15.98;;;11.60;99.90;;;;;;5047005;28;20048;-78
2021/12/13 08:46:59;;;;;;;25.20;15.60;;;11.60;99.90;;;;;;5049875;28;20025;-76
2021/12/13 08:49:34;;;;;;;31.33;16.88;;;11.60;99.90;;;;;;5051771;28;20021;-78
2021/12/13 08:52:06;;;;;;;28.00;17.10;;;11.60;99.90;;;;;;5049643;28;20022;-78
2021/12/13 08:54:59;;;;;;;44.42;21.30;;;11.60;99.90;;;;;;5051265;28;20083;-77
2021/12/13 08:57:36;;;;;;;28.48;17.15;;;11.70;99.90;;;;;;5042098;28;20474;-78
2021/12/13 09:00:14;;;;;;;57.95;27.40;;;11.70;99.90;;;;;;5040638;28;20029;-78
2021/12/13 09:02:50;;;;;;;28.95;17.25;;;11.90;99.90;;;;;;5042873;28;20037;-77
2021/12/13 09:05:25;;;;;;;27.63;17.40;;;11.80;99.90;;;;;;5037937;28;20030;-79
2021/12/13 09:07:54;;;;;;;48.08;24.17;;;11.80;99.90;;;;;;5044463;28;20492;-79
2021/12/13 09:10:21;;;;;;;30.27;17.67;;;11.70;99.90;;;;;;5047584;28;20478;-79
2021/12/13 09:12:55;;;;;;;34.42;18.30;;;11.70;99.90;;;;;;5050066;28;20013;-80
2021/12/13 09:15:26;;;;;;;34.17;18.95;;;11.70;99.90;;;;;;5052799;28;20021;-77
2021/12/13 09:17:53;;;;;;;62.85;28.67;;;11.70;99.90;;;;;;5047968;28;20104;-79
2021/12/13 09:20:28;;;;;;;31.65;18.75;;;11.80;99.90;;;;;;5041769;28;20116;-77
2021/12/13 09:23:07;;;;;;;31.52;18.02;;;11.80;99.90;;;;;;5043651;28;20052;-78
2021/12/13 09:25:50;;;;;;;35.03;19.42;;;11.80;99.90;;;;;;5044533;28;20037;-77
2021/12/13 09:28:29;;;;;;;34.92;19.10;;;11.70;99.90;;;;;;5046235;28;20042;-77
2021/12/13 09:30:58;;;;;;;36.90;20.05;;;11.70;99.90;;;;;;5045530;28;20091;-77
2021/12/13 09:33:29;;;;;;;47.25;24.38;;;11.70;99.90;;;;;;5045323;28;20041;-77
2021/12/13 09:36:06;;;;;;;31.70;20.02;;;11.80;99.90;;;;;;5040327;28;20063;-78
2021/12/13 09:38:41;;;;;;;37.95;21.35;;;11.80;99.90;;;;;;5038784;28;20063;-78
2021/12/13 09:41:35;;;;;;;36.95;19.65;;;11.80;99.90;;;;;;5037326;28;20022;-77
2021/12/13 09:44:04;;;;;;;35.78;19.45;;;11.80;99.90;;;;;;5046258;28;20029;-77
2021/12/13 09:46:35;;;;;;;34.13;18.83;;;;;;;;;;5041824;28;20049;-78
2021/12/13 09:49:09;;;;;;;35.35;19.45;;;11.90;99.90;;;;;;5045814;28;20025;-77
2021/12/13 09:51:48;;;;;;;42.17;20.50;;;11.90;99.90;;;;;;5052182;28;20010;-78
2021/12/13 09:54:17;;;;;;;38.05;20.10;;;11.90;99.90;;;;;;5055015;28;20032;-78
2021/12/13 09:56:49;;;;;;;36.58;19.98;;;11.90;99.90;;;;;;5048568;28;20029;-80
2021/12/13 09:59:30;;;;;;;46.42;24.80;;;11.90;99.90;;;;;;5048499;28;20033;-80
2021/12/13 10:01:59;;;;;;;30.70;18.42;;;11.90;99.90;;;;;;5045628;28;20028;-77
2021/12/13 10:04:30;;;;;;;38.08;19.88;;;11.90;99.90;;;;;;5041257;28;20029;-77
2021/12/13 10:07:06;;;;;;;35.58;19.40;;;11.90;99.90;;;;;;5041136;28;20048;-81
2021/12/13 10:09:37;;;;;;;35.85;19.13;;;12.00;99.90;;;;;;5046429;28;20109;-79
2021/12/13 10:12:27;;;;;;;32.03;18.75;;;12.00;99.90;;;;;;5044675;28;20047;-80
2021/12/13 10:15:18;;;;;;;34.67;19.17;;;12.10;99.90;;;;;;5042191;28;20060;-79
2021/12/13 10:17:47;;;;;;;44.97;22.15;;;12.10;99.90;;;;;;5038185;28;20060;-79
2021/12/13 10:20:18;;;;;;;35.58;20.27;;;12.20;99.90;;;;;;5038799;28;20120;-79
2021/12/13 10:22:45;;;;;;;35.67;19.20;;;12.30;99.90;;;;;;5039858;28;20104;-79
2021/12/13 10:25:27;;;;;;;34.53;17.98;;;12.30;99.90;;;;;;5039308;28;20121;-78
2021/12/13 10:27:53;;;;;;;32.15;18.50;;;12.40;99.90;;;;;;5041529;28;20104;-78
2021/12/13 10:30:27;;;;;;;33.42;18.15;;;12.50;99.90;;;;;;5046913;28;20032;-78
2021/12/13 10:32:53;;;;;;;28.17;16.27;;;12.50;99.90;;;;;;5052249;28;20021;-77
2021/12/13 10:35:26;;;;;;;30.38;16.38;;;12.60;99.90;;;;;;5040217;28;20659;-78
2021/12/13 10:37:56;;;;;;;25.25;14.93;;;12.70;99.90;;;;;;5037092;28;20104;-78
2021/12/13 10:40:29;;;;;;;24.05;14.48;;;12.80;99.90;;;;;;5039053;28;20032;-78
2021/12/13 10:43:13;;;;;;;30.17;16.52;;;13.00;99.90;;;;;;5042836;28;20425;-77
2021/12/13 10:45:49;;;;;;;25.98;14.95;;;13.20;99.90;;;;;;5051479;28;20116;-76
2021/12/13 10:48:16;;;;;;;25.25;14.25;;;13.40;99.90;;;;;;5051951;28;20093;-77
2021/12/13 10:50:48;;;;;;;25.13;13.35;;;13.50;99.90;;;;;;5040951;28;20013;-78
2021/12/13 10:53:18;;;;;;;27.65;14.57;;;13.50;99.90;;;;;;5041510;28;20021;-80
2021/12/13 10:56:01;;;;;;;24.52;12.15;;;13.40;99.90;;;;;;5041218;28;20030;-80
2021/12/13 10:58:30;;;;;;;20.95;11.80;;;13.30;99.90;;;;;;5038396;28;20490;-79
2021/12/13 11:01:09;;;;;;;20.15;12.52;;;13.20;99.90;;;;;;5040331;28;20014;-78
2021/12/13 11:03:35;;;;;;;23.85;13.25;;;13.00;99.90;;;;;;5045574;28;20078;-79
2021/12/13 11:06:02;;;;;;;18.30;10.80;;;13.00;99.90;;;;;;5042655;28;20032;-77
2021/12/13 11:08:29;;;;;;;20.88;11.32;;;12.90;99.90;;;;;;5046715;28;20088;-78
2021/12/13 11:11:04;;;;;;;23.52;11.88;;;12.80;99.90;;;;;;5050415;28;20082;-78
2021/12/13 11:13:34;;;;;;;20.70;11.38;;;12.70;99.90;;;;;;5045767;28;20052;-78
2021/12/13 11:16:11;;;;;;;21.98;11.00;;;12.70;99.90;;;;;;5051004;28;20041;-78
2021/12/13 11:18:37;;;;;;;21.30;12.52;;;12.60;99.90;;;;;;5056350;28;20014;-76
2021/12/13 11:21:19;;;;;;;20.65;12.52;;;12.40;99.90;;;;;;5062649;22;20049;-80
2021/12/13 11:23:45;;;;;;;21.58;11.48;;;12.40;99.90;;;;;;5047095;28;20021;-82
2021/12/13 11:26:15;;;;;;;22.55;12.27;;;12.30;99.90;;;;;;5049648;28;20366;-82
2021/12/13 11:28:41;;;;;;;22.85;13.40;;;12.10;99.90;;;;;;5052103;28;20016;-82
2021/12/13 11:31:51;;;;;;;27.90;14.25;;;12.10;99.90;;;;;;5057430;28;20025;-81
2021/12/13 11:34:36;;;;;;;22.13;13.27;;;12.10;99.90;;;;;;5054185;28;20017;-81
2021/12/13 11:37:43;;;;;;;26.55;14.40;;;12.00;99.90;;;;;;5045813;28;20059;-80
2021/12/13 11:40:36;;;;;;;31.13;15.30;;;12.00;99.90;;;;;;5044027;28;20043;-81
2021/12/13 11:43:30;;;;;;;24.20;14.50;;;11.90;99.90;;;;;;5044428;28;20022;-80
2021/12/13 11:46:12;;;;;;;25.83;15.32;;;11.90;99.90;;;;;;5042023;28;20105;-82
2021/12/13 11:49:07;;;;;;;26.00;15.05;;;11.90;99.90;;;;;;5045674;28;20470;-82
2021/12/13 11:51:57;;;;;;;27.70;16.02;;;11.80;99.90;;;;;;5045684;28;20030;-81
2021/12/13 11:54:42;;;;;;;26.58;15.68;;;11.80;99.90;;;;;;5043991;28;20032;-79
2021/12/13 11:57:45;;;;;;;26.40;14.98;;;11.80;99.90;;;;;;5042531;28;20041;-80
2021/12/13 12:00:32;;;;;;;27.38;16.05;;;11.70;99.90;;;;;;5042300;28;20029;-80
2021/12/13 12:03:16;;;;;;;27.90;15.98;;;11.80;99.90;;;;;;5042088;28;20026;-81
2021/12/13 12:06:20;;;;;;;30.75;17.08;;;11.70;99.90;;;;;;5043107;28;20108;-82
2021/12/13 12:09:23;;;;;;;27.30;15.13;;;11.70;99.90;;;;;;5042558;28;20038;-80
2021/12/13 12:12:26;;;;;;;28.48;16.58;;;11.80;99.90;;;;;;5043096;28;20087;-81
2021/12/13 12:15:00;;;;;;;26.67;16.20;;;11.80;99.90;;;;;;5042070;28;20029;-81
2021/12/13 12:17:27;;;;;;;28.27;17.23;;;11.80;99.90;;;;;;5042580;28;20033;-81
2021/12/13 12:19:54;;;;;;;30.67;16.02;;;11.70;99.90;;;;;;5045384;28;20061;-81
2021/12/13 12:22:20;;;;;;;28.40;17.42;;;11.70;99.90;;;;;;5041109;28;20028;-80
2021/12/13 12:24:49;;;;;;;27.60;16.35;;;11.70;99.90;;;;;;5041724;28;20029;-82
2021/12/13 12:27:19;;;;;;;30.95;17.85;;;11.70;99.90;;;;;;5039850;28;20048;-82
2021/12/13 12:29:51;;;;;;;31.50;18.25;;;11.70;99.90;;;;;;5046123;28;20014;-81
2021/12/13 12:32:28;;;;;;;33.45;18.23;;;11.70;99.90;;;;;;5042904;28;20497;-83
2021/12/13 12:35:01;;;;;;;35.65;19.10;;;11.70;99.90;;;;;;5042908;28;20055;-80
2021/12/13 12:37:49;;;;;;;32.03;18.45;;;11.70;99.90;;;;;;5041181;28;20549;-80
2021/12/13 12:40:23;;;;;;;31.90;18.27;;;11.60;99.90;;;;;;5040310;28;20060;-81
2021/12/13 12:42:52;;;;;;;43.92;19.75;;;11.70;99.90;;;;;;5042789;28;20036;-81
2021/12/13 12:45:40;;;;;;;29.92;18.10;;;11.70;99.90;;;;;;5047159;28;20021;-82
2021/12/13 12:48:10;;;;;;;35.50;19.95;;;11.70;99.90;;;;;;5042823;28;20068;-82
2021/12/13 12:50:45;;;;;;;35.38;20.60;;;11.70;99.90;;;;;;5050367;28;20029;-80
2021/12/13 12:53:13;;;;;;;32.13;19.40;;;11.70;99.90;;;;;;5048830;28;20025;-78
2021/12/13 12:55:41;;;;;;;34.97;19.70;;;11.70;99.90;;;;;;5051980;28;20041;-79
2021/12/13 12:58:24;;;;;;;44.10;21.17;;;11.70;99.90;;;;;;5051147;28;20450;-76
2021/12/13 13:00:52;;;;;;;32.88;19.70;;;11.60;99.90;;;;;;5040966;28;20104;-79
2021/12/13 13:03:31;;;;;;;32.88;19.30;;;11.60;99.90;;;;;;5034979;28;20044;-77
2021/12/13 13:06:20;;;;;;;37.20;21.38;;;11.60;99.90;;;;;;5037499;28;20029;-79
2021/12/13 13:08:50;;;;;;;43.15;21.58;;;11.60;99.90;;;;;;5036595;28;20025;-77
2021/12/13 13:11:30;;;;;;;34.03;21.23;;;11.60;99.90;;;;;;5037987;28;20025;-76
2021/12/13 13:14:19;;;;;;;37.10;21.63;;;11.50;99.90;;;;;;5037688;28;20052;-77
2021/12/13 13:16:49;;;;;;;41.72;25.45;;;11.50;99.90;;;;;;5038936;28;20021;-79
2021/12/13 13:19:30;;;;;;;37.22;21.27;;;11.50;99.90;;;;;;5038323;28;20030;-79
2021/12/13 13:22:05;;;;;;;35.85;20.02;;;11.50;99.90;;;;;;5043920;28;20029;-80
2021/12/13 13:24:31;;;;;;;;;;;11.50;99.90;;;;;;5044748;28;20020;-80